Elk, CA (95432)

12:17 PM PDT on August 28, 2016 (GMT -0700)
Navarro Ridge | | Change Station

Elev 446 ft 39.20 °N, 123.76 °W | Updated 4 seconds ago

Clear
Clear
56.8 °F
Feels Like 56.8 °F
N
7.7
Wind Variable Wind from WNW
Gusts 8.0 mph

Today
High -- | Low -- °F
--% Chance of Precip.
Yesterday
High -- | Low -- °F
Precip. -- in
Pressure 30.05 in
Visibility 10.0 miles
Clouds Clear
Dew Point 56 °F
Humidity 97%
Rainfall 0.01 in
Snow Depth Not available.
6:40 AM 7:50 PM
Waning Crescent, 14% visible
METAR KUKI 281856Z AUTO VRB03KT 10SM CLR 21/12 A3007 RMK AO2 SLP175 T02060122
Pressure 30.05 in
Visibility 10.0 miles
Clouds Clear
Dew Point 56 °F
Humidity 97%
Rainfall 0.01 in
Snow Depth Not available.
6:40 AM 7:50 PM
Waning Crescent, 14% visible
METAR KUKI 281856Z AUTO VRB03KT 10SM CLR 21/12 A3007 RMK AO2 SLP175 T02060122

10-Day Weather Forecast

Almanac

Astronomy

Aug. 28, 2016 Rise Set
Actual Time
Civil Twilight
Nautical Twilight
Astronomical Twilight
Moon
Length of Visible Light
Length of Day
Tomorrow will be .
, % of the Moon is Illuminated

Today's Extremes

State Highs State Lows

Community

WunderPhotos

Upload Photos

1,935,660 photos uploaded!

WunderBlog® & News

Nearby

Air Quality

  Air Quality AQ Index Pollutant
Not available.

Snow Depth

Station Depth Elevation

Earthquake Activity

City Distance Mag. Time & Date
Minimum magnitude displayed is 2.5.

Coastal Water Temperatures

Place Temperature

Stations

Nearby Weather Stations

Station Location Temp. Windchill Dew Point Humidity Wind Precip. Elev Updated Type
                   

Watches & Warnings

There are currently no watches in effect.